createdAt,value
2019-05-18T00:00:49.175Z,13.60
2019-05-18T00:03:18.343Z,14.57
2019-05-18T00:05:47.488Z,14.33
2019-05-18T00:08:16.547Z,13.93
2019-05-18T00:10:45.682Z,14.37
2019-05-18T00:13:14.731Z,14.30
2019-05-18T00:15:43.908Z,13.20
2019-05-18T00:18:13.021Z,14.57
2019-05-18T00:20:42.087Z,12.93
2019-05-18T00:23:11.215Z,13.37
2019-05-18T00:25:40.365Z,13.00
2019-05-18T00:28:09.490Z,19.40
2019-05-18T00:30:38.656Z,13.53
2019-05-18T00:33:07.794Z,14.40
2019-05-18T00:35:37.218Z,15.90
2019-05-18T00:38:06.395Z,15.57
2019-05-18T00:40:35.560Z,15.50
2019-05-18T00:43:04.978Z,17.60
2019-05-18T00:45:34.155Z,14.87
2019-05-18T00:48:03.331Z,11.60
2019-05-18T00:50:32.431Z,14.27
2019-05-18T00:53:01.637Z,12.90
2019-05-18T00:55:30.742Z,12.20
2019-05-18T00:58:00.179Z,11.67
2019-05-18T01:00:29.500Z,11.10
2019-05-18T01:02:58.522Z,11.27
2019-05-18T01:05:27.628Z,12.30
2019-05-18T01:07:56.635Z,13.40
2019-05-18T01:10:25.812Z,13.67
2019-05-18T01:12:55.000Z,13.33
2019-05-18T01:15:24.280Z,15.13
2019-05-18T01:17:57.478Z,13.70
2019-05-18T01:20:24.287Z,13.07
2019-05-18T01:22:53.472Z,12.97
2019-05-18T01:25:22.682Z,14.37
2019-05-18T01:27:51.666Z,13.70
2019-05-18T01:30:21.584Z,13.77
2019-05-18T01:32:50.652Z,14.73
2019-05-18T01:35:19.849Z,14.87
2019-05-18T01:37:48.935Z,15.17
2019-05-18T01:40:19.306Z,14.87
2019-05-18T01:42:48.505Z,12.40
2019-05-18T01:45:17.893Z,12.80
2019-05-18T01:47:47.021Z,12.60
2019-05-18T01:50:16.203Z,12.77
2019-05-18T01:52:45.324Z,14.30
2019-05-18T01:55:14.875Z,14.17
2019-05-18T01:57:44.008Z,13.27
2019-05-18T02:00:13.780Z,12.17
2019-05-18T02:02:42.787Z,13.80
2019-05-18T02:05:12.464Z,12.73
2019-05-18T02:07:41.586Z,12.73
2019-05-18T02:10:10.951Z,13.00
2019-05-18T02:12:39.978Z,12.57
2019-05-18T02:15:09.362Z,11.40
2019-05-18T02:17:38.533Z,13.37
2019-05-18T02:20:08.350Z,13.80
2019-05-18T02:22:37.457Z,14.37
2019-05-18T02:25:06.648Z,13.50
2019-05-18T02:27:35.743Z,14.27
2019-05-18T02:30:05.741Z,14.07
2019-05-18T02:32:34.873Z,12.77
2019-05-18T02:35:04.035Z,12.53
2019-05-18T02:37:33.095Z,13.83
2019-05-18T02:40:02.536Z,14.40
2019-05-18T02:42:31.998Z,13.70
2019-05-18T02:45:01.176Z,13.73
2019-05-18T02:47:30.305Z,14.53
2019-05-18T02:49:59.368Z,14.93
2019-05-18T02:52:28.421Z,14.60
2019-05-18T02:54:57.560Z,13.97
2019-05-18T02:57:26.743Z,13.10
2019-05-18T02:59:55.902Z,13.93
2019-05-18T03:02:24.915Z,14.23
2019-05-18T03:04:54.116Z,13.33
2019-05-18T03:07:23.276Z,13.83
2019-05-18T03:09:52.545Z,17.73
2019-05-18T03:12:21.674Z,16.70
2019-05-18T03:14:50.874Z,15.80
2019-05-18T03:17:20.004Z,16.53
2019-05-18T03:19:49.167Z,16.20
2019-05-18T03:22:18.365Z,15.60
2019-05-18T03:24:47.355Z,16.97
2019-05-18T03:27:16.459Z,16.47
2019-05-18T03:29:45.612Z,17.47
2019-05-18T03:32:15.008Z,17.67
2019-05-18T03:34:44.058Z,15.07
2019-05-18T03:37:13.146Z,16.60
2019-05-18T03:39:42.336Z,16.57
2019-05-18T03:42:11.679Z,16.80
2019-05-18T03:44:40.769Z,16.27
2019-05-18T03:47:09.867Z,15.53
2019-05-18T03:49:38.940Z,16.27
2019-05-18T03:52:08.132Z,15.33
2019-05-18T03:54:37.320Z,16.73
2019-05-18T03:57:06.351Z,12.90
2019-05-18T03:59:35.453Z,12.47
2019-05-18T04:02:04.583Z,12.87
2019-05-18T04:04:33.700Z,14.97
2019-05-18T04:07:02.766Z,13.23
2019-05-18T04:09:31.891Z,13.73
2019-05-18T04:12:00.986Z,13.00
2019-05-18T04:14:30.094Z,12.60
2019-05-18T04:16:59.096Z,13.40
2019-05-18T04:19:44.852Z,11.80
2019-05-18T04:21:59.195Z,10.00
2019-05-18T04:24:28.271Z,8.57
2019-05-18T04:26:57.345Z,10.03
2019-05-18T04:29:26.699Z,10.83
2019-05-18T04:31:55.772Z,10.70
2019-05-18T04:34:24.870Z,11.10
2019-05-18T04:36:54.263Z,11.37
2019-05-18T04:39:23.350Z,9.20
2019-05-18T04:41:52.360Z,9.40
2019-05-18T04:44:21.533Z,9.27
2019-05-18T04:46:50.745Z,7.67
2019-05-18T04:49:19.903Z,8.03
2019-05-18T04:51:49.356Z,8.93
2019-05-18T04:54:18.688Z,8.57
2019-05-18T04:56:47.743Z,8.60
2019-05-18T04:59:16.831Z,8.97
2019-05-18T05:01:46.027Z,9.40
2019-05-18T05:04:15.400Z,8.60
2019-05-18T05:06:44.419Z,8.70
2019-05-18T05:09:13.554Z,8.37
2019-05-18T05:11:42.567Z,9.20
2019-05-18T05:14:11.636Z,8.80
2019-05-18T05:16:40.680Z,8.43
2019-05-18T05:19:09.695Z,7.97
2019-05-18T05:21:38.687Z,7.83
2019-05-18T05:24:07.789Z,6.60
2019-05-18T05:26:39.441Z,7.30
2019-05-18T05:29:07.668Z,7.67
2019-05-18T05:31:36.716Z,7.57
2019-05-18T05:34:05.896Z,8.47
2019-05-18T05:36:35.164Z,8.27
2019-05-18T05:39:06.047Z,7.90
2019-05-18T05:41:35.504Z,8.63
2019-05-18T05:44:04.697Z,8.40
2019-05-18T05:46:33.718Z,8.43
2019-05-18T05:49:02.841Z,8.40
2019-05-18T05:51:32.006Z,8.97
2019-05-18T05:54:01.452Z,7.83
2019-05-18T05:56:30.581Z,8.17
2019-05-18T05:58:59.571Z,8.30
2019-05-18T06:01:28.663Z,8.40
2019-05-18T06:03:57.700Z,7.63
2019-05-18T06:06:26.728Z,7.77
2019-05-18T06:08:55.805Z,7.93
2019-05-18T06:11:24.843Z,8.27
2019-05-18T06:13:54.006Z,7.27
2019-05-18T06:16:23.154Z,7.67
2019-05-18T06:18:52.302Z,8.27
2019-05-18T06:21:21.296Z,9.30
2019-05-18T06:23:50.425Z,7.67
2019-05-18T06:26:19.499Z,7.17
2019-05-18T06:28:48.590Z,7.50
2019-05-18T06:31:17.654Z,8.17
2019-05-18T06:33:46.978Z,7.70
2019-05-18T06:36:16.135Z,6.83
2019-05-18T06:38:45.177Z,7.43
2019-05-18T06:41:14.283Z,6.90
2019-05-18T06:43:43.389Z,8.43
2019-05-18T06:46:12.508Z,9.30
2019-05-18T06:48:41.572Z,5.67
2019-05-18T06:51:10.668Z,8.97
2019-05-18T06:53:39.768Z,8.13
2019-05-18T06:56:08.911Z,7.53
2019-05-18T06:58:38.655Z,8.10
2019-05-18T07:01:07.854Z,10.77
2019-05-18T07:03:37.032Z,8.87
2019-05-18T07:06:06.107Z,8.03
2019-05-18T07:08:35.512Z,7.73
2019-05-18T07:11:04.643Z,8.40
2019-05-18T07:13:33.844Z,8.40
2019-05-18T07:16:02.876Z,8.73
2019-05-18T07:18:31.984Z,8.73
2019-05-18T07:21:01.274Z,8.90
2019-05-18T07:23:30.431Z,8.87
2019-05-18T07:25:59.473Z,6.73
2019-05-18T07:28:28.648Z,8.47
2019-05-18T07:30:57.677Z,8.50
2019-05-18T07:33:27.156Z,5.90
2019-05-18T07:35:56.247Z,9.47
2019-05-18T07:38:25.323Z,8.97
2019-05-18T07:40:54.402Z,9.47
2019-05-18T07:43:23.516Z,8.60
2019-05-18T07:45:52.689Z,10.47
2019-05-18T07:48:21.827Z,8.77
2019-05-18T07:50:50.920Z,8.50
2019-05-18T07:53:20.016Z,8.63
2019-05-18T07:55:49.038Z,9.10
2019-05-18T07:58:18.158Z,9.67
2019-05-18T08:00:47.211Z,10.60
2019-05-18T08:03:16.271Z,9.57
2019-05-18T08:05:45.388Z,8.90
2019-05-18T08:08:14.511Z,9.63
2019-05-18T08:10:43.912Z,9.20
2019-05-18T08:13:13.010Z,8.80
2019-05-18T08:15:42.176Z,8.80
2019-05-18T08:18:11.361Z,9.50
2019-05-18T08:20:40.859Z,10.00
2019-05-18T08:23:10.048Z,10.27
2019-05-18T08:25:39.110Z,9.43
2019-05-18T08:28:08.358Z,8.20
2019-05-18T08:30:37.556Z,9.10
2019-05-18T08:33:06.745Z,9.07
2019-05-18T08:35:35.955Z,9.97
2019-05-18T08:38:05.396Z,10.10
2019-05-18T08:40:34.483Z,8.90
2019-05-18T08:43:03.525Z,9.50
2019-05-18T08:45:32.983Z,8.67
2019-05-18T08:48:02.008Z,8.50
2019-05-18T08:50:31.135Z,6.47
2019-05-18T08:53:00.172Z,10.30
2019-05-18T08:55:29.364Z,8.70
2019-05-18T08:57:58.487Z,7.97
2019-05-18T09:00:27.675Z,10.00
2019-05-18T09:02:56.981Z,10.13
2019-05-18T09:05:26.147Z,9.17
2019-05-18T09:07:55.431Z,10.00
2019-05-18T09:10:24.504Z,8.30
2019-05-18T09:12:53.675Z,9.30
2019-05-18T09:15:22.964Z,9.37
2019-05-18T09:17:52.124Z,7.63
2019-05-18T09:20:21.296Z,7.60
2019-05-18T09:22:50.365Z,7.97
2019-05-18T09:25:19.814Z,8.20
2019-05-18T09:27:48.806Z,7.93
2019-05-18T09:30:18.316Z,8.87
2019-05-18T09:32:47.507Z,7.70
2019-05-18T09:35:16.743Z,6.40
2019-05-18T09:37:45.826Z,6.93
2019-05-18T09:40:16.163Z,7.47
2019-05-18T09:42:45.214Z,8.13
2019-05-18T09:45:14.683Z,8.10
2019-05-18T09:47:43.848Z,7.20
2019-05-18T09:50:14.036Z,7.33
2019-05-18T09:52:45.299Z,7.27
2019-05-18T09:55:14.360Z,6.50
2019-05-18T09:57:43.440Z,7.20
2019-05-18T10:00:13.286Z,7.70
2019-05-18T10:02:42.504Z,6.60
2019-05-18T10:05:12.031Z,6.90
2019-05-18T10:07:41.219Z,6.50
2019-05-18T10:10:10.628Z,6.70
2019-05-18T10:12:39.816Z,7.27
2019-05-18T10:15:09.171Z,6.00
2019-05-18T10:17:38.344Z,5.80
2019-05-18T10:20:08.469Z,5.93
2019-05-18T10:22:51.203Z,5.30
2019-05-18T10:25:08.776Z,6.60
2019-05-18T10:27:37.843Z,4.73
2019-05-18T10:30:07.534Z,5.50
2019-05-18T10:32:36.695Z,6.70
2019-05-18T10:35:06.036Z,5.33
2019-05-18T10:37:35.164Z,5.23
2019-05-18T10:40:04.726Z,5.30
2019-05-18T10:42:33.897Z,5.20
2019-05-18T10:45:02.976Z,5.60
2019-05-18T10:47:32.056Z,6.03
2019-05-18T10:50:01.179Z,6.97
2019-05-18T10:52:30.507Z,7.07
2019-05-18T10:54:59.680Z,8.07
2019-05-18T10:57:28.814Z,6.97
2019-05-18T10:59:57.971Z,7.13
2019-05-18T11:02:27.368Z,6.10
2019-05-18T11:04:56.513Z,7.43
2019-05-18T11:07:28.857Z,6.03
2019-05-18T11:09:56.460Z,6.53
2019-05-18T11:12:25.655Z,7.07
2019-05-18T11:14:54.828Z,7.50
2019-05-18T11:17:23.920Z,6.03
2019-05-18T11:19:53.074Z,6.80
2019-05-18T11:22:22.172Z,6.30
2019-05-18T11:24:51.571Z,7.80
2019-05-18T11:27:20.662Z,6.77
2019-05-18T11:29:49.852Z,7.43
2019-05-18T11:32:19.015Z,6.20
2019-05-18T11:34:48.161Z,7.20
2019-05-18T11:37:17.567Z,6.33
2019-05-18T11:39:46.715Z,7.00
2019-05-18T11:42:15.823Z,6.43
2019-05-18T11:44:44.851Z,7.20
2019-05-18T11:47:13.999Z,6.20
2019-05-18T11:49:43.055Z,6.77
2019-05-18T11:52:12.461Z,6.60
2019-05-18T11:54:41.628Z,6.93
2019-05-18T11:57:10.767Z,7.00
2019-05-18T11:59:39.937Z,7.03
2019-05-18T12:02:09.005Z,7.00
2019-05-18T12:04:38.076Z,6.80
2019-05-18T12:07:07.261Z,5.80
2019-05-18T12:09:36.373Z,6.37
2019-05-18T12:12:05.499Z,6.80
2019-05-18T12:14:34.674Z,6.60
2019-05-18T12:17:03.869Z,6.40
2019-05-18T12:19:33.071Z,6.77
2019-05-18T12:22:02.253Z,6.90
2019-05-18T12:24:31.291Z,6.50
2019-05-18T12:27:00.399Z,7.10
2019-05-18T12:29:29.495Z,7.20
2019-05-18T12:31:58.639Z,7.00
2019-05-18T12:34:27.761Z,6.67
2019-05-18T12:36:56.929Z,6.40
2019-05-18T12:39:26.007Z,7.00
2019-05-18T12:41:55.322Z,6.93
2019-05-18T12:44:24.771Z,6.63
2019-05-18T12:46:53.942Z,6.37
2019-05-18T12:49:23.172Z,6.97
2019-05-18T12:51:52.483Z,6.33
2019-05-18T12:54:29.214Z,5.97
2019-05-18T12:56:52.300Z,6.57
2019-05-18T12:59:21.504Z,7.03
2019-05-18T13:01:50.919Z,6.70
2019-05-18T13:04:20.125Z,6.70
2019-05-18T13:06:49.142Z,6.97
2019-05-18T13:09:18.606Z,6.43
2019-05-18T13:11:47.601Z,6.40
2019-05-18T13:14:16.703Z,6.47
2019-05-18T13:16:45.873Z,7.03
2019-05-18T13:19:15.048Z,7.07
2019-05-18T13:21:44.077Z,6.20
2019-05-18T13:24:13.151Z,7.30
2019-05-18T13:26:42.160Z,7.10
2019-05-18T13:29:11.308Z,8.23
2019-05-18T13:31:40.500Z,10.80
2019-05-18T13:34:09.637Z,7.90
2019-05-18T13:36:38.769Z,7.70
2019-05-18T13:39:08.211Z,7.03
2019-05-18T13:41:37.344Z,7.40
2019-05-18T13:44:06.544Z,8.20
2019-05-18T13:46:35.614Z,7.27
2019-05-18T13:49:04.702Z,7.47
2019-05-18T13:51:33.775Z,5.93
2019-05-18T13:54:03.000Z,6.90
2019-05-18T13:56:32.068Z,10.37
2019-05-18T13:59:01.306Z,8.37
2019-05-18T14:01:30.490Z,7.20
2019-05-18T14:03:59.610Z,8.27
2019-05-18T14:06:28.778Z,7.50
2019-05-18T14:08:57.808Z,6.60
2019-05-18T14:11:26.898Z,7.97
2019-05-18T14:13:56.246Z,7.00
2019-05-18T14:16:25.402Z,8.10
2019-05-18T14:18:54.739Z,6.80
2019-05-18T14:21:23.856Z,8.00
2019-05-18T14:23:52.997Z,7.57
2019-05-18T14:26:22.100Z,8.50
2019-05-18T14:28:51.227Z,9.20
2019-05-18T14:31:20.253Z,7.27
2019-05-18T14:33:49.360Z,7.27
2019-05-18T14:36:18.552Z,8.30
2019-05-18T14:38:47.640Z,8.97
2019-05-18T14:41:16.777Z,8.60
2019-05-18T14:43:45.785Z,8.47
2019-05-18T14:46:14.876Z,8.70
2019-05-18T14:48:44.298Z,9.00
2019-05-18T14:51:13.475Z,7.23
2019-05-18T14:53:42.665Z,8.17
2019-05-18T14:56:11.864Z,8.40
2019-05-18T14:58:40.930Z,9.70
2019-05-18T15:01:10.439Z,7.70
2019-05-18T15:03:39.773Z,8.57
2019-05-18T15:06:08.876Z,9.03
2019-05-18T15:08:37.969Z,8.30
2019-05-18T15:11:07.051Z,10.57
2019-05-18T15:13:36.199Z,10.90
2019-05-18T15:16:05.371Z,9.30
2019-05-18T15:18:34.510Z,7.70
2019-05-18T15:21:03.563Z,9.57
2019-05-18T15:23:32.651Z,9.20
2019-05-18T15:26:02.023Z,9.90
2019-05-18T15:28:31.172Z,13.13
2019-05-18T15:31:00.260Z,9.40
2019-05-18T15:33:29.377Z,10.63
2019-05-18T15:35:58.407Z,10.17
2019-05-18T15:38:27.856Z,10.60
2019-05-18T15:40:56.964Z,10.90
2019-05-18T15:43:26.041Z,11.23
2019-05-18T15:45:55.137Z,9.80
2019-05-18T15:48:24.394Z,10.33
2019-05-18T15:50:53.646Z,10.80
2019-05-18T15:53:23.231Z,11.10
2019-05-18T15:56:04.766Z,11.03
2019-05-18T15:58:23.068Z,11.10
2019-05-18T16:00:52.147Z,12.33
2019-05-18T16:03:21.325Z,11.83
2019-05-18T16:05:50.459Z,11.20
2019-05-18T16:08:19.687Z,11.33
2019-05-18T16:10:48.887Z,12.97
2019-05-18T16:13:17.975Z,15.60
2019-05-18T16:15:47.155Z,13.60
2019-05-18T16:18:17.232Z,12.77
2019-05-18T16:20:46.327Z,12.30
2019-05-18T16:23:15.514Z,11.67
2019-05-18T16:25:45.216Z,11.50
2019-05-18T16:28:14.367Z,10.87
2019-05-18T16:30:43.507Z,12.00
2019-05-18T16:33:12.753Z,10.70
2019-05-18T16:35:41.855Z,12.83
2019-05-18T16:38:10.947Z,13.43
2019-05-18T16:40:40.308Z,11.60
2019-05-18T16:43:09.548Z,11.70
2019-05-18T16:45:38.720Z,12.60
2019-05-18T16:48:07.871Z,13.83
2019-05-18T16:50:37.252Z,12.50
2019-05-18T16:53:06.692Z,12.90
2019-05-18T16:55:35.805Z,12.33
2019-05-18T16:58:04.959Z,12.70
2019-05-18T17:00:34.203Z,12.90
2019-05-18T17:03:03.344Z,12.90
2019-05-18T17:05:32.518Z,11.67
2019-05-18T17:08:01.651Z,12.60
2019-05-18T17:10:31.102Z,13.37
2019-05-18T17:13:00.476Z,11.67
2019-05-18T17:15:29.583Z,12.00
2019-05-18T17:17:58.688Z,13.13
2019-05-18T17:20:27.807Z,11.13
2019-05-18T17:22:57.187Z,11.83
2019-05-18T17:25:26.351Z,11.60
2019-05-18T17:27:55.467Z,9.47
2019-05-18T17:30:24.630Z,11.60
2019-05-18T17:32:53.785Z,11.63
2019-05-18T17:35:22.960Z,12.90
2019-05-18T17:37:52.128Z,11.37
2019-05-18T17:40:21.279Z,11.87
2019-05-18T17:42:50.684Z,11.90
2019-05-18T17:45:20.185Z,12.27
2019-05-18T17:47:49.344Z,11.80
2019-05-18T17:50:18.499Z,11.60
2019-05-18T17:52:47.708Z,10.70
2019-05-18T17:55:16.879Z,12.13
2019-05-18T17:57:46.622Z,11.80
2019-05-18T18:00:17.668Z,11.70
2019-05-18T18:02:48.253Z,10.60
2019-05-18T18:05:17.663Z,11.90
2019-05-18T18:07:46.774Z,12.03
2019-05-18T18:10:16.856Z,12.70
2019-05-18T18:12:45.903Z,12.77
2019-05-18T18:15:15.282Z,13.20
2019-05-18T18:17:44.662Z,18.57
2019-05-18T18:20:14.226Z,15.00
2019-05-18T18:22:43.338Z,23.90
2019-05-18T18:25:12.507Z,17.80
2019-05-18T18:27:41.531Z,16.13
2019-05-18T18:30:12.047Z,14.97
2019-05-18T18:32:41.202Z,12.40
2019-05-18T18:35:10.587Z,14.03
2019-05-18T18:37:40.061Z,13.57
2019-05-18T18:40:09.375Z,15.27
2019-05-18T18:42:38.536Z,15.53
2019-05-18T18:45:08.140Z,16.90
2019-05-18T18:47:37.268Z,34.70
2019-05-18T18:50:06.681Z,26.83
2019-05-18T18:52:36.136Z,28.80
2019-05-18T18:55:05.381Z,18.83
2019-05-18T18:57:41.425Z,17.80
2019-05-18T19:00:05.627Z,18.80
2019-05-18T19:02:34.797Z,20.50
2019-05-18T19:05:04.011Z,18.80
2019-05-18T19:07:34.044Z,19.27
2019-05-18T19:10:03.472Z,17.20
2019-05-18T19:12:32.656Z,17.27
2019-05-18T19:15:02.157Z,15.57
2019-05-18T19:17:31.167Z,14.83
2019-05-18T19:20:00.299Z,14.70
2019-05-18T19:22:29.348Z,13.87
2019-05-18T19:24:58.449Z,15.17
2019-05-18T19:27:27.528Z,16.20
2019-05-18T19:29:56.586Z,17.97
2019-05-18T19:32:25.716Z,15.07
2019-05-18T19:34:54.958Z,16.03
2019-05-18T19:37:26.414Z,15.50
2019-05-18T19:39:54.726Z,15.07
2019-05-18T19:42:23.845Z,17.13
2019-05-18T19:44:53.044Z,17.97
2019-05-18T19:47:22.191Z,16.27
2019-05-18T19:49:51.592Z,16.27
2019-05-18T19:52:20.738Z,17.60
2019-05-18T19:54:49.831Z,17.50
2019-05-18T19:57:18.970Z,17.10
2019-05-18T19:59:47.977Z,16.57
2019-05-18T20:02:18.464Z,18.37
2019-05-18T20:05:05.881Z,18.00
2019-05-18T20:07:19.455Z,18.90
2019-05-18T20:09:48.744Z,17.87
2019-05-18T20:12:17.899Z,18.93
2019-05-18T20:14:46.911Z,19.27
2019-05-18T20:17:16.111Z,18.57
2019-05-18T20:19:45.175Z,17.50
2019-05-18T20:22:14.327Z,19.70
2019-05-18T20:24:43.502Z,21.90
2019-05-18T20:27:12.800Z,21.43
2019-05-18T20:29:41.810Z,21.80
2019-05-18T20:32:10.899Z,24.43
2019-05-18T20:34:39.967Z,22.60
2019-05-18T20:37:09.015Z,21.27
2019-05-18T20:39:38.152Z,24.33
2019-05-18T20:42:07.256Z,24.37
2019-05-18T20:44:36.347Z,27.33
2019-05-18T20:47:05.415Z,30.50
2019-05-18T20:49:34.616Z,28.63
2019-05-18T20:52:03.801Z,30.70
2019-05-18T20:54:32.875Z,27.60
2019-05-18T20:57:02.059Z,28.50
2019-05-18T20:59:31.171Z,27.87
2019-05-18T21:02:00.320Z,26.37
2019-05-18T21:04:29.412Z,25.43
2019-05-18T21:06:58.474Z,24.30
2019-05-18T21:09:27.717Z,24.83
2019-05-18T21:11:56.939Z,25.40
2019-05-18T21:14:26.044Z,26.47
2019-05-18T21:16:55.055Z,27.20
2019-05-18T21:19:24.156Z,36.33
2019-05-18T21:21:53.336Z,38.77
2019-05-18T21:24:22.381Z,35.17
2019-05-18T21:26:51.675Z,29.87
2019-05-18T21:29:20.746Z,27.67
2019-05-18T21:31:49.880Z,25.13
2019-05-18T21:34:19.323Z,24.83
2019-05-18T21:36:48.362Z,24.37
2019-05-18T21:39:17.473Z,27.13
2019-05-18T21:41:46.714Z,26.37
2019-05-18T21:44:15.747Z,27.87
2019-05-18T21:46:44.859Z,28.10
2019-05-18T21:49:14.052Z,28.10
2019-05-18T21:51:43.224Z,28.70
2019-05-18T21:54:12.362Z,29.93
2019-05-18T21:56:41.824Z,28.60
2019-05-18T21:59:12.446Z,30.43
2019-05-18T22:01:41.686Z,30.93
2019-05-18T22:04:10.859Z,29.20
2019-05-18T22:06:40.116Z,29.90
2019-05-18T22:09:09.343Z,28.30
2019-05-18T22:11:38.399Z,30.83
2019-05-18T22:14:07.585Z,30.70
2019-05-18T22:16:36.680Z,29.00
2019-05-18T22:19:05.843Z,27.93
2019-05-18T22:21:35.251Z,28.40
2019-05-18T22:24:04.422Z,29.40
2019-05-18T22:26:33.500Z,28.13
2019-05-18T22:29:02.682Z,26.47
2019-05-18T22:31:31.759Z,26.73
2019-05-18T22:34:00.811Z,26.00
2019-05-18T22:36:29.910Z,26.93
2019-05-18T22:38:59.066Z,25.80
2019-05-18T22:41:28.218Z,25.20
2019-05-18T22:43:57.315Z,25.20
2019-05-18T22:46:26.315Z,25.67
2019-05-18T22:48:55.376Z,27.20
2019-05-18T22:51:24.468Z,25.27
2019-05-18T22:53:53.648Z,26.70
2019-05-18T22:56:22.815Z,24.53
2019-05-18T22:58:51.958Z,24.07
2019-05-18T23:01:20.982Z,25.40
2019-05-18T23:03:51.782Z,23.40
2019-05-18T23:06:20.671Z,26.13
2019-05-18T23:08:49.732Z,23.60
2019-05-18T23:11:18.917Z,25.07
2019-05-18T23:13:48.032Z,25.37
2019-05-18T23:16:17.043Z,25.60
2019-05-18T23:18:56.479Z,25.23
2019-05-18T23:21:17.130Z,24.67
2019-05-18T23:23:46.193Z,25.70
2019-05-18T23:26:15.259Z,25.40
2019-05-18T23:28:44.551Z,25.60
2019-05-18T23:31:13.992Z,26.67
2019-05-18T23:33:43.147Z,23.37
2019-05-18T23:36:12.864Z,23.10
2019-05-18T23:38:42.191Z,24.67
2019-05-18T23:41:11.267Z,25.40
2019-05-18T23:43:40.368Z,25.63
2019-05-18T23:46:09.544Z,24.17
2019-05-18T23:48:38.664Z,24.67
2019-05-18T23:51:07.837Z,26.00
2019-05-18T23:53:36.966Z,23.47
2019-05-18T23:56:06.127Z,27.30
2019-05-18T23:58:35.283Z,24.53
